sensor_id;sensor_type;location;lat;lon;timestamp;temperature;humidity
5899;DHT22;2975;50.956;6.962;2023-10-19T00:01:20;12.10;99.90
5899;DHT22;2975;50.956;6.962;2023-10-19T00:03:52;12.10;99.90
5899;DHT22;2975;50.956;6.962;2023-10-19T00:06:18;12.00;99.90
5899;DHT22;2975;50.956;6.962;2023-10-19T00:08:44;12.00;99.90
5899;DHT22;2975;50.956;6.962;2023-10-19T00:11:10;12.10;99.90
5899;DHT22;2975;50.956;6.962;2023-10-19T00:13:46;12.20;99.90
5899;DHT22;2975;50.956;6.962;2023-10-19T00:16:15;12.20;99.90
5899;DHT22;2975;50.956;6.962;2023-10-19T00:18:48;12.20;99.90
5899;DHT22;2975;50.956;6.962;2023-10-19T00:21:15;12.30;99.90
5899;DHT22;2975;50.956;6.962;2023-10-19T00:23:58;12.40;99.90
5899;DHT22;2975;50.956;6.962;2023-10-19T00:26:28;12.40;99.90
5899;DHT22;2975;50.956;6.962;2023-10-19T00:28:56;12.40;99.90
5899;DHT22;2975;50.956;6.962;2023-10-19T00:31:25;12.50;99.90
5899;DHT22;2975;50.956;6.962;2023-10-19T00:33:53;12.50;99.90
5899;DHT22;2975;50.956;6.962;2023-10-19T00:36:20;12.50;99.90
5899;DHT22;2975;50.956;6.962;2023-10-19T00:38:47;12.70;99.90
5899;DHT22;2975;50.956;6.962;2023-10-19T00:41:21;12.60;99.90
5899;DHT22;2975;50.956;6.962;2023-10-19T00:43:49;12.60;99.90
5899;DHT22;2975;50.956;6.962;2023-10-19T00:46:16;12.70;99.90
5899;DHT22;2975;50.956;6.962;2023-10-19T00:48:53;12.60;99.90
5899;DHT22;2975;50.956;6.962;2023-10-19T00:51:25;12.60;99.90
5899;DHT22;2975;50.956;6.962;2023-10-19T00:54:05;12.60;99.90
5899;DHT22;2975;50.956;6.962;2023-10-19T00:56:40;12.70;99.90
5899;DHT22;2975;50.956;6.962;2023-10-19T00:59:11;12.60;99.90
5899;DHT22;2975;50.956;6.962;2023-10-19T01:01:44;12.60;99.90
5899;DHT22;2975;50.956;6.962;2023-10-19T01:04:13;12.40;99.90
5899;DHT22;2975;50.956;6.962;2023-10-19T01:06:51;12.30;99.90
5899;DHT22;2975;50.956;6.962;2023-10-19T01:09:35;12.20;99.90
5899;DHT22;2975;50.956;6.962;2023-10-19T01:12:02;12.30;99.90
5899;DHT22;2975;50.956;6.962;2023-10-19T01:17:36;12.40;99.90
5899;DHT22;2975;50.956;6.962;2023-10-19T01:20:14;12.40;99.90
5899;DHT22;2975;50.956;6.962;2023-10-19T01:22:56;12.30;99.90
5899;DHT22;2975;50.956;6.962;2023-10-19T01:25:55;12.20;99.90
5899;DHT22;2975;50.956;6.962;2023-10-19T01:28:26;12.30;99.90
5899;DHT22;2975;50.956;6.962;2023-10-19T01:31:04;12.50;99.90
5899;DHT22;2975;50.956;6.962;2023-10-19T01:33:31;12.50;99.90
5899;DHT22;2975;50.956;6.962;2023-10-19T01:35:59;12.50;99.90
5899;DHT22;2975;50.956;6.962;2023-10-19T01:38:38;12.50;99.90
5899;DHT22;2975;50.956;6.962;2023-10-19T01:41:05;12.40;99.90
5899;DHT22;2975;50.956;6.962;2023-10-19T01:43:42;12.30;99.90
5899;DHT22;2975;50.956;6.962;2023-10-19T01:46:09;12.50;99.90
5899;DHT22;2975;50.956;6.962;2023-10-19T01:48:43;12.50;99.90
5899;DHT22;2975;50.956;6.962;2023-10-19T01:51:11;12.50;99.90
5899;DHT22;2975;50.956;6.962;2023-10-19T01:53:40;12.50;99.90
5899;DHT22;2975;50.956;6.962;2023-10-19T01:56:09;12.60;99.90
5899;DHT22;2975;50.956;6.962;2023-10-19T01:58:36;12.60;99.90
5899;DHT22;2975;50.956;6.962;2023-10-19T02:01:05;12.60;99.90
5899;DHT22;2975;50.956;6.962;2023-10-19T02:03:43;12.70;99.90
5899;DHT22;2975;50.956;6.962;2023-10-19T02:06:13;12.80;99.90
5899;DHT22;2975;50.956;6.962;2023-10-19T02:08:46;13.00;99.90
5899;DHT22;2975;50.956;6.962;2023-10-19T02:11:22;13.10;99.90
5899;DHT22;2975;50.956;6.962;2023-10-19T02:13:50;13.20;99.90
5899;DHT22;2975;50.956;6.962;2023-10-19T02:16:16;13.10;99.90
5899;DHT22;2975;50.956;6.962;2023-10-19T02:18:45;13.10;99.90
5899;DHT22;2975;50.956;6.962;2023-10-19T02:21:11;13.20;99.90
5899;DHT22;2975;50.956;6.962;2023-10-19T02:23:40;13.10;99.90
5899;DHT22;2975;50.956;6.962;2023-10-19T02:26:08;12.90;99.90
5899;DHT22;2975;50.956;6.962;2023-10-19T02:28:35;12.80;99.90
5899;DHT22;2975;50.956;6.962;2023-10-19T02:31:04;12.80;99.90
5899;DHT22;2975;50.956;6.962;2023-10-19T02:33:46;12.90;99.90
5899;DHT22;2975;50.956;6.962;2023-10-19T02:36:15;12.90;99.90
5899;DHT22;2975;50.956;6.962;2023-10-19T02:38:42;12.90;99.90
5899;DHT22;2975;50.956;6.962;2023-10-19T02:41:10;12.90;99.90
5899;DHT22;2975;50.956;6.962;2023-10-19T02:43:37;12.80;99.90
5899;DHT22;2975;50.956;6.962;2023-10-19T02:46:02;12.80;99.90
5899;DHT22;2975;50.956;6.962;2023-10-19T02:48:29;12.70;99.90
5899;DHT22;2975;50.956;6.962;2023-10-19T02:50:54;12.60;99.90
5899;DHT22;2975;50.956;6.962;2023-10-19T02:53:20;12.40;99.90
5899;DHT22;2975;50.956;6.962;2023-10-19T02:55:46;12.40;99.90
5899;DHT22;2975;50.956;6.962;2023-10-19T02:58:12;12.60;99.90
5899;DHT22;2975;50.956;6.962;2023-10-19T03:00:38;12.70;99.90
5899;DHT22;2975;50.956;6.962;2023-10-19T03:03:05;12.80;99.90
5899;DHT22;2975;50.956;6.962;2023-10-19T03:05:31;12.70;99.90
5899;DHT22;2975;50.956;6.962;2023-10-19T03:08:01;12.80;99.90
5899;DHT22;2975;50.956;6.962;2023-10-19T03:10:31;12.80;99.90
5899;DHT22;2975;50.956;6.962;2023-10-19T03:13:08;12.90;99.90
5899;DHT22;2975;50.956;6.962;2023-10-19T03:15:33;13.00;99.90
5899;DHT22;2975;50.956;6.962;2023-10-19T03:17:59;13.10;99.90
5899;DHT22;2975;50.956;6.962;2023-10-19T03:20:30;13.10;99.90
5899;DHT22;2975;50.956;6.962;2023-10-19T03:22:59;13.00;99.90
5899;DHT22;2975;50.956;6.962;2023-10-19T03:25:27;13.00;99.90
5899;DHT22;2975;50.956;6.962;2023-10-19T03:28:11;13.10;99.90
5899;DHT22;2975;50.956;6.962;2023-10-19T03:30:37;13.00;99.90
5899;DHT22;2975;50.956;6.962;2023-10-19T03:33:06;13.00;99.90
5899;DHT22;2975;50.956;6.962;2023-10-19T03:35:38;13.00;99.90
5899;DHT22;2975;50.956;6.962;2023-10-19T03:38:07;12.90;99.90
5899;DHT22;2975;50.956;6.962;2023-10-19T03:40:43;12.90;99.90
5899;DHT22;2975;50.956;6.962;2023-10-19T03:43:17;12.70;99.90
5899;DHT22;2975;50.956;6.962;2023-10-19T03:45:47;12.70;99.90
5899;DHT22;2975;50.956;6.962;2023-10-19T03:48:20;12.70;99.90
5899;DHT22;2975;50.956;6.962;2023-10-19T03:50:52;12.70;99.90
5899;DHT22;2975;50.956;6.962;2023-10-19T03:53:22;12.80;99.90
5899;DHT22;2975;50.956;6.962;2023-10-19T03:55:49;12.90;99.90
5899;DHT22;2975;50.956;6.962;2023-10-19T03:58:18;12.90;99.90
5899;DHT22;2975;50.956;6.962;2023-10-19T04:00:46;12.90;99.90
5899;DHT22;2975;50.956;6.962;2023-10-19T04:03:11;12.90;99.90
5899;DHT22;2975;50.956;6.962;2023-10-19T04:05:37;12.90;99.90
5899;DHT22;2975;50.956;6.962;2023-10-19T04:08:05;13.00;99.90
5899;DHT22;2975;50.956;6.962;2023-10-19T04:10:39;13.00;99.90
5899;DHT22;2975;50.956;6.962;2023-10-19T04:13:05;13.00;99.90
5899;DHT22;2975;50.956;6.962;2023-10-19T04:15:35;13.00;99.90
5899;DHT22;2975;50.956;6.962;2023-10-19T04:18:02;13.00;99.90
5899;DHT22;2975;50.956;6.962;2023-10-19T04:20:34;13.00;99.90
5899;DHT22;2975;50.956;6.962;2023-10-19T04:23:18;13.00;99.90
5899;DHT22;2975;50.956;6.962;2023-10-19T04:25:46;12.90;99.90
5899;DHT22;2975;50.956;6.962;2023-10-19T04:28:12;13.00;99.90
5899;DHT22;2975;50.956;6.962;2023-10-19T04:30:39;13.00;99.90
5899;DHT22;2975;50.956;6.962;2023-10-19T04:33:05;13.00;99.90
5899;DHT22;2975;50.956;6.962;2023-10-19T04:35:35;13.00;99.90
5899;DHT22;2975;50.956;6.962;2023-10-19T04:38:03;13.00;99.90
5899;DHT22;2975;50.956;6.962;2023-10-19T04:40:29;13.10;99.90
5899;DHT22;2975;50.956;6.962;2023-10-19T04:42:54;13.10;99.90
5899;DHT22;2975;50.956;6.962;2023-10-19T04:45:20;13.10;99.90
5899;DHT22;2975;50.956;6.962;2023-10-19T04:47:49;13.20;99.90
5899;DHT22;2975;50.956;6.962;2023-10-19T04:50:15;13.20;99.90
5899;DHT22;2975;50.956;6.962;2023-10-19T04:52:41;13.20;99.90
5899;DHT22;2975;50.956;6.962;2023-10-19T04:55:07;13.20;99.90
5899;DHT22;2975;50.956;6.962;2023-10-19T04:57:33;13.30;99.90
5899;DHT22;2975;50.956;6.962;2023-10-19T04:59:58;13.30;99.90
5899;DHT22;2975;50.956;6.962;2023-10-19T05:02:24;13.30;99.90
5899;DHT22;2975;50.956;6.962;2023-10-19T05:04:50;13.30;99.90
5899;DHT22;2975;50.956;6.962;2023-10-19T05:07:15;13.30;99.90
5899;DHT22;2975;50.956;6.962;2023-10-19T05:09:45;13.30;99.90
5899;DHT22;2975;50.956;6.962;2023-10-19T05:12:11;13.20;99.90
5899;DHT22;2975;50.956;6.962;2023-10-19T05:14:38;13.20;99.90
5899;DHT22;2975;50.956;6.962;2023-10-19T05:17:05;13.20;99.90
5899;DHT22;2975;50.956;6.962;2023-10-19T05:19:31;13.30;99.90
5899;DHT22;2975;50.956;6.962;2023-10-19T05:21:57;13.30;99.90
5899;DHT22;2975;50.956;6.962;2023-10-19T05:24:23;13.40;99.90
5899;DHT22;2975;50.956;6.962;2023-10-19T05:26:48;13.40;99.90
5899;DHT22;2975;50.956;6.962;2023-10-19T05:29:14;13.40;99.90
5899;DHT22;2975;50.956;6.962;2023-10-19T05:31:41;13.40;99.90
5899;DHT22;2975;50.956;6.962;2023-10-19T05:34:06;13.50;99.90
5899;DHT22;2975;50.956;6.962;2023-10-19T05:36:33;13.60;99.90
5899;DHT22;2975;50.956;6.962;2023-10-19T05:38:59;13.60;99.90
5899;DHT22;2975;50.956;6.962;2023-10-19T05:41:25;13.70;99.90
5899;DHT22;2975;50.956;6.962;2023-10-19T05:43:52;13.60;99.90
5899;DHT22;2975;50.956;6.962;2023-10-19T05:46:19;13.50;99.90
5899;DHT22;2975;50.956;6.962;2023-10-19T05:48:48;13.50;99.90
5899;DHT22;2975;50.956;6.962;2023-10-19T05:51:14;13.50;99.90
5899;DHT22;2975;50.956;6.962;2023-10-19T05:53:40;13.50;99.90
5899;DHT22;2975;50.956;6.962;2023-10-19T05:56:07;13.60;99.90
5899;DHT22;2975;50.956;6.962;2023-10-19T05:58:32;13.60;99.90
5899;DHT22;2975;50.956;6.962;2023-10-19T06:00:59;13.60;99.90
5899;DHT22;2975;50.956;6.962;2023-10-19T06:03:24;13.60;99.90
5899;DHT22;2975;50.956;6.962;2023-10-19T06:05:50;13.60;99.90
5899;DHT22;2975;50.956;6.962;2023-10-19T06:08:16;13.60;99.90
5899;DHT22;2975;50.956;6.962;2023-10-19T06:10:41;13.60;99.90
5899;DHT22;2975;50.956;6.962;2023-10-19T06:13:07;13.60;99.90
5899;DHT22;2975;50.956;6.962;2023-10-19T06:15:35;13.80;99.90
5899;DHT22;2975;50.956;6.962;2023-10-19T06:18:01;13.70;99.90
5899;DHT22;2975;50.956;6.962;2023-10-19T06:20:26;13.80;99.90
5899;DHT22;2975;50.956;6.962;2023-10-19T06:22:58;13.90;99.90
5899;DHT22;2975;50.956;6.962;2023-10-19T06:25:31;13.90;99.90
5899;DHT22;2975;50.956;6.962;2023-10-19T06:27:57;14.00;99.90
5899;DHT22;2975;50.956;6.962;2023-10-19T06:30:24;14.10;99.90
5899;DHT22;2975;50.956;6.962;2023-10-19T06:32:52;14.10;99.90
5899;DHT22;2975;50.956;6.962;2023-10-19T06:35:18;14.00;99.90
5899;DHT22;2975;50.956;6.962;2023-10-19T06:37:45;14.10;99.90
5899;DHT22;2975;50.956;6.962;2023-10-19T06:40:11;14.10;99.90
5899;DHT22;2975;50.956;6.962;2023-10-19T06:42:38;14.20;99.90
5899;DHT22;2975;50.956;6.962;2023-10-19T06:45:05;14.20;99.90
5899;DHT22;2975;50.956;6.962;2023-10-19T06:47:30;14.20;99.90
5899;DHT22;2975;50.956;6.962;2023-10-19T06:49:56;14.20;99.90
5899;DHT22;2975;50.956;6.962;2023-10-19T06:52:22;14.20;99.90
5899;DHT22;2975;50.956;6.962;2023-10-19T06:54:48;14.20;99.90
5899;DHT22;2975;50.956;6.962;2023-10-19T06:57:13;14.20;99.90
5899;DHT22;2975;50.956;6.962;2023-10-19T06:59:39;14.30;99.90
5899;DHT22;2975;50.956;6.962;2023-10-19T07:02:04;14.30;99.90
5899;DHT22;2975;50.956;6.962;2023-10-19T07:04:33;14.30;99.90
5899;DHT22;2975;50.956;6.962;2023-10-19T07:06:58;14.40;99.90
5899;DHT22;2975;50.956;6.962;2023-10-19T07:09:26;14.40;99.90
5899;DHT22;2975;50.956;6.962;2023-10-19T07:11:51;14.40;99.90
5899;DHT22;2975;50.956;6.962;2023-10-19T07:14:22;14.50;99.90
5899;DHT22;2975;50.956;6.962;2023-10-19T07:16:50;14.50;99.90
5899;DHT22;2975;50.956;6.962;2023-10-19T07:19:17;14.50;99.90
5899;DHT22;2975;50.956;6.962;2023-10-19T07:21:45;14.60;99.90
5899;DHT22;2975;50.956;6.962;2023-10-19T07:24:14;14.60;99.90
5899;DHT22;2975;50.956;6.962;2023-10-19T07:26:40;14.60;99.90
5899;DHT22;2975;50.956;6.962;2023-10-19T07:29:19;14.70;99.90
5899;DHT22;2975;50.956;6.962;2023-10-19T07:31:45;14.70;99.90
5899;DHT22;2975;50.956;6.962;2023-10-19T07:34:10;14.70;99.90
5899;DHT22;2975;50.956;6.962;2023-10-19T07:36:40;14.70;99.90
5899;DHT22;2975;50.956;6.962;2023-10-19T07:39:08;14.80;99.90
5899;DHT22;2975;50.956;6.962;2023-10-19T07:41:40;14.80;99.90
5899;DHT22;2975;50.956;6.962;2023-10-19T07:44:05;14.80;99.90
5899;DHT22;2975;50.956;6.962;2023-10-19T07:46:31;14.80;99.90
5899;DHT22;2975;50.956;6.962;2023-10-19T07:48:57;14.90;99.90
5899;DHT22;2975;50.956;6.962;2023-10-19T07:51:24;15.00;99.90
5899;DHT22;2975;50.956;6.962;2023-10-19T07:53:50;15.10;99.90
5899;DHT22;2975;50.956;6.962;2023-10-19T07:56:17;15.20;99.90
5899;DHT22;2975;50.956;6.962;2023-10-19T07:58:42;15.30;99.90
5899;DHT22;2975;50.956;6.962;2023-10-19T08:01:08;15.40;99.90
5899;DHT22;2975;50.956;6.962;2023-10-19T08:03:34;15.50;99.90
5899;DHT22;2975;50.956;6.962;2023-10-19T08:06:00;15.50;99.90
5899;DHT22;2975;50.956;6.962;2023-10-19T08:08:26;15.50;99.90
5899;DHT22;2975;50.956;6.962;2023-10-19T08:10:59;15.50;99.90
5899;DHT22;2975;50.956;6.962;2023-10-19T08:13:24;15.60;99.90
5899;DHT22;2975;50.956;6.962;2023-10-19T08:15:51;15.70;99.90
5899;DHT22;2975;50.956;6.962;2023-10-19T08:18:17;15.80;99.90
5899;DHT22;2975;50.956;6.962;2023-10-19T08:20:44;15.90;99.90
5899;DHT22;2975;50.956;6.962;2023-10-19T08:23:11;16.00;99.90
5899;DHT22;2975;50.956;6.962;2023-10-19T08:25:39;16.00;99.90
5899;DHT22;2975;50.956;6.962;2023-10-19T08:28:05;16.20;99.90
5899;DHT22;2975;50.956;6.962;2023-10-19T08:30:32;16.30;99.90
5899;DHT22;2975;50.956;6.962;2023-10-19T08:32:59;16.30;99.90
5899;DHT22;2975;50.956;6.962;2023-10-19T08:35:27;16.40;99.90
5899;DHT22;2975;50.956;6.962;2023-10-19T08:37:53;16.60;99.90
5899;DHT22;2975;50.956;6.962;2023-10-19T08:40:19;16.60;99.90
5899;DHT22;2975;50.956;6.962;2023-10-19T08:42:46;16.70;99.90
5899;DHT22;2975;50.956;6.962;2023-10-19T08:45:12;16.70;99.90
5899;DHT22;2975;50.956;6.962;2023-10-19T08:47:46;16.80;99.90
5899;DHT22;2975;50.956;6.962;2023-10-19T08:50:14;16.80;99.90
5899;DHT22;2975;50.956;6.962;2023-10-19T08:52:41;17.10;99.90
5899;DHT22;2975;50.956;6.962;2023-10-19T08:55:09;17.20;99.90
5899;DHT22;2975;50.956;6.962;2023-10-19T08:57:39;17.20;99.90
5899;DHT22;2975;50.956;6.962;2023-10-19T09:00:05;17.20;99.90
5899;DHT22;2975;50.956;6.962;2023-10-19T09:02:32;17.10;99.90
5899;DHT22;2975;50.956;6.962;2023-10-19T09:04:58;17.00;99.90
5899;DHT22;2975;50.956;6.962;2023-10-19T09:07:25;16.90;99.90
5899;DHT22;2975;50.956;6.962;2023-10-19T09:09:56;16.80;99.90
5899;DHT22;2975;50.956;6.962;2023-10-19T09:12:22;16.70;99.90
5899;DHT22;2975;50.956;6.962;2023-10-19T09:14:48;16.60;99.90
5899;DHT22;2975;50.956;6.962;2023-10-19T09:17:15;16.60;99.90
5899;DHT22;2975;50.956;6.962;2023-10-19T09:19:44;16.60;99.90
5899;DHT22;2975;50.956;6.962;2023-10-19T09:22:12;16.70;99.90
5899;DHT22;2975;50.956;6.962;2023-10-19T09:24:45;16.70;99.90
5899;DHT22;2975;50.956;6.962;2023-10-19T09:27:11;16.70;99.90
5899;DHT22;2975;50.956;6.962;2023-10-19T09:29:38;16.60;99.90
5899;DHT22;2975;50.956;6.962;2023-10-19T09:32:05;16.60;99.90
5899;DHT22;2975;50.956;6.962;2023-10-19T09:34:32;16.60;99.90
5899;DHT22;2975;50.956;6.962;2023-10-19T09:37:00;16.50;99.90
5899;DHT22;2975;50.956;6.962;2023-10-19T09:39:29;16.60;99.90
5899;DHT22;2975;50.956;6.962;2023-10-19T09:42:03;16.80;99.90
5899;DHT22;2975;50.956;6.962;2023-10-19T09:44:40;17.00;99.90
5899;DHT22;2975;50.956;6.962;2023-10-19T09:47:23;17.20;99.90
5899;DHT22;2975;50.956;6.962;2023-10-19T09:49:51;17.40;99.90
5899;DHT22;2975;50.956;6.962;2023-10-19T09:52:18;17.60;99.90
5899;DHT22;2975;50.956;6.962;2023-10-19T09:54:59;17.70;99.90
5899;DHT22;2975;50.956;6.962;2023-10-19T09:57:36;17.80;99.90
5899;DHT22;2975;50.956;6.962;2023-10-19T10:00:05;17.80;99.90
5899;DHT22;2975;50.956;6.962;2023-10-19T10:02:42;17.70;99.90
5899;DHT22;2975;50.956;6.962;2023-10-19T10:08:38;17.50;99.90
5899;DHT22;2975;50.956;6.962;2023-10-19T10:11:24;17.50;99.90
5899;DHT22;2975;50.956;6.962;2023-10-19T10:13:50;17.60;99.90
5899;DHT22;2975;50.956;6.962;2023-10-19T10:16:24;17.80;99.90
5899;DHT22;2975;50.956;6.962;2023-10-19T10:18:51;18.00;99.90
5899;DHT22;2975;50.956;6.962;2023-10-19T10:21:20;18.30;99.90
5899;DHT22;2975;50.956;6.962;2023-10-19T10:23:52;18.60;99.90
5899;DHT22;2975;50.956;6.962;2023-10-19T10:26:19;18.90;99.90
5899;DHT22;2975;50.956;6.962;2023-10-19T10:28:51;19.10;99.90
5899;DHT22;2975;50.956;6.962;2023-10-19T10:31:40;19.40;99.90
5899;DHT22;2975;50.956;6.962;2023-10-19T10:34:08;19.70;99.90
5899;DHT22;2975;50.956;6.962;2023-10-19T10:37:12;19.90;99.90
5899;DHT22;2975;50.956;6.962;2023-10-19T10:39:39;19.90;99.90
5899;DHT22;2975;50.956;6.962;2023-10-19T10:42:10;20.00;99.90
5899;DHT22;2975;50.956;6.962;2023-10-19T10:44:47;19.90;99.90
5899;DHT22;2975;50.956;6.962;2023-10-19T10:47:21;19.80;99.90
5899;DHT22;2975;50.956;6.962;2023-10-19T10:49:57;19.90;99.90
5899;DHT22;2975;50.956;6.962;2023-10-19T10:54:56;20.00;99.90
5899;DHT22;2975;50.956;6.962;2023-10-19T10:57:22;20.00;99.90
5899;DHT22;2975;50.956;6.962;2023-10-19T11:00:01;20.10;99.90
5899;DHT22;2975;50.956;6.962;2023-10-19T11:02:29;20.10;99.90
5899;DHT22;2975;50.956;6.962;2023-10-19T11:04:54;20.10;99.90
5899;DHT22;2975;50.956;6.962;2023-10-19T11:07:20;20.10;99.90
5899;DHT22;2975;50.956;6.962;2023-10-19T11:09:47;20.00;99.90
5899;DHT22;2975;50.956;6.962;2023-10-19T11:12:13;19.90;99.90
5899;DHT22;2975;50.956;6.962;2023-10-19T11:14:53;19.90;99.90
5899;DHT22;2975;50.956;6.962;2023-10-19T11:17:19;19.90;99.90
5899;DHT22;2975;50.956;6.962;2023-10-19T11:19:47;19.90;99.90
5899;DHT22;2975;50.956;6.962;2023-10-19T11:22:14;20.00;99.90
5899;DHT22;2975;50.956;6.962;2023-10-19T11:24:40;20.00;99.90
5899;DHT22;2975;50.956;6.962;2023-10-19T11:27:06;20.00;99.90
5899;DHT22;2975;50.956;6.962;2023-10-19T11:29:33;20.00;99.90
5899;DHT22;2975;50.956;6.962;2023-10-19T11:32:02;20.10;99.90
5899;DHT22;2975;50.956;6.962;2023-10-19T11:34:28;20.30;99.90
5899;DHT22;2975;50.956;6.962;2023-10-19T11:36:56;20.30;99.90
5899;DHT22;2975;50.956;6.962;2023-10-19T11:39:26;20.40;99.90
5899;DHT22;2975;50.956;6.962;2023-10-19T11:41:51;20.40;99.90
5899;DHT22;2975;50.956;6.962;2023-10-19T11:44:18;20.30;99.90
5899;DHT22;2975;50.956;6.962;2023-10-19T11:46:45;20.20;99.90
5899;DHT22;2975;50.956;6.962;2023-10-19T11:49:10;20.20;99.90
5899;DHT22;2975;50.956;6.962;2023-10-19T11:51:37;20.10;99.90
5899;DHT22;2975;50.956;6.962;2023-10-19T11:54:04;20.00;99.90
5899;DHT22;2975;50.956;6.962;2023-10-19T11:56:31;19.90;99.90
5899;DHT22;2975;50.956;6.962;2023-10-19T11:58:57;20.00;99.90
5899;DHT22;2975;50.956;6.962;2023-10-19T12:01:22;20.00;99.90
5899;DHT22;2975;50.956;6.962;2023-10-19T12:03:50;19.90;99.90
5899;DHT22;2975;50.956;6.962;2023-10-19T12:06:16;19.80;99.90
5899;DHT22;2975;50.956;6.962;2023-10-19T12:08:45;19.80;99.90
5899;DHT22;2975;50.956;6.962;2023-10-19T12:11:12;19.80;99.90
5899;DHT22;2975;50.956;6.962;2023-10-19T12:13:47;19.80;99.90
5899;DHT22;2975;50.956;6.962;2023-10-19T12:16:14;19.70;99.90
5899;DHT22;2975;50.956;6.962;2023-10-19T12:18:44;19.60;99.90
5899;DHT22;2975;50.956;6.962;2023-10-19T12:21:09;19.50;99.90
5899;DHT22;2975;50.956;6.962;2023-10-19T12:23:42;19.40;99.90
5899;DHT22;2975;50.956;6.962;2023-10-19T12:26:08;19.30;99.90
5899;DHT22;2975;50.956;6.962;2023-10-19T12:28:38;19.20;99.90
5899;DHT22;2975;50.956;6.962;2023-10-19T12:31:04;19.10;99.90
5899;DHT22;2975;50.956;6.962;2023-10-19T12:33:31;19.20;99.90
5899;DHT22;2975;50.956;6.962;2023-10-19T12:35:56;19.20;99.90
5899;DHT22;2975;50.956;6.962;2023-10-19T12:38:22;19.20;99.90
5899;DHT22;2975;50.956;6.962;2023-10-19T12:40:50;19.30;99.90
5899;DHT22;2975;50.956;6.962;2023-10-19T12:43:17;19.30;99.90
5899;DHT22;2975;50.956;6.962;2023-10-19T12:45:49;19.30;99.90
5899;DHT22;2975;50.956;6.962;2023-10-19T12:48:23;19.30;99.90
5899;DHT22;2975;50.956;6.962;2023-10-19T12:50:55;19.20;99.90
5899;DHT22;2975;50.956;6.962;2023-10-19T12:53:21;19.20;99.90
5899;DHT22;2975;50.956;6.962;2023-10-19T12:55:50;19.10;99.90
5899;DHT22;2975;50.956;6.962;2023-10-19T12:58:16;19.10;99.90
5899;DHT22;2975;50.956;6.962;2023-10-19T13:00:45;19.00;99.90
5899;DHT22;2975;50.956;6.962;2023-10-19T13:03:12;19.10;99.90
5899;DHT22;2975;50.956;6.962;2023-10-19T13:05:42;19.20;99.90
5899;DHT22;2975;50.956;6.962;2023-10-19T13:08:11;19.20;99.90
5899;DHT22;2975;50.956;6.962;2023-10-19T13:10:40;19.20;99.90
5899;DHT22;2975;50.956;6.962;2023-10-19T13:13:10;19.40;99.90
5899;DHT22;2975;50.956;6.962;2023-10-19T13:15:42;19.50;99.90
5899;DHT22;2975;50.956;6.962;2023-10-19T13:18:09;19.70;99.90
5899;DHT22;2975;50.956;6.962;2023-10-19T13:20:36;19.80;99.90
5899;DHT22;2975;50.956;6.962;2023-10-19T13:23:04;19.90;99.90
5899;DHT22;2975;50.956;6.962;2023-10-19T13:25:33;19.90;99.90
5899;DHT22;2975;50.956;6.962;2023-10-19T13:28:08;19.70;99.90
5899;DHT22;2975;50.956;6.962;2023-10-19T13:30:38;19.60;99.90
5899;DHT22;2975;50.956;6.962;2023-10-19T13:33:05;19.30;99.90
5899;DHT22;2975;50.956;6.962;2023-10-19T13:35:32;19.20;99.90
5899;DHT22;2975;50.956;6.962;2023-10-19T13:37:59;19.10;99.90
5899;DHT22;2975;50.956;6.962;2023-10-19T13:40:27;19.00;99.90
5899;DHT22;2975;50.956;6.962;2023-10-19T13:42:56;18.90;99.90
5899;DHT22;2975;50.956;6.962;2023-10-19T13:45:21;18.80;99.90
5899;DHT22;2975;50.956;6.962;2023-10-19T13:47:47;18.70;99.90
5899;DHT22;2975;50.956;6.962;2023-10-19T13:50:13;18.60;99.90
5899;DHT22;2975;50.956;6.962;2023-10-19T13:52:38;18.40;99.90
5899;DHT22;2975;50.956;6.962;2023-10-19T13:55:05;18.30;99.90
5899;DHT22;2975;50.956;6.962;2023-10-19T13:57:33;18.20;99.90
5899;DHT22;2975;50.956;6.962;2023-10-19T13:59:59;18.10;99.90
5899;DHT22;2975;50.956;6.962;2023-10-19T14:02:26;18.10;99.90
5899;DHT22;2975;50.956;6.962;2023-10-19T14:04:52;18.00;99.90
5899;DHT22;2975;50.956;6.962;2023-10-19T14:07:18;18.00;99.90
5899;DHT22;2975;50.956;6.962;2023-10-19T14:09:45;18.00;99.90
5899;DHT22;2975;50.956;6.962;2023-10-19T14:12:11;18.00;99.90
5899;DHT22;2975;50.956;6.962;2023-10-19T14:14:36;18.00;99.90
5899;DHT22;2975;50.956;6.962;2023-10-19T14:17:02;18.00;99.90
5899;DHT22;2975;50.956;6.962;2023-10-19T14:19:27;18.10;99.90
5899;DHT22;2975;50.956;6.962;2023-10-19T14:21:54;18.20;99.90
5899;DHT22;2975;50.956;6.962;2023-10-19T14:24:19;18.20;99.90
5899;DHT22;2975;50.956;6.962;2023-10-19T14:26:46;18.20;99.90
5899;DHT22;2975;50.956;6.962;2023-10-19T14:29:12;18.30;99.90
5899;DHT22;2975;50.956;6.962;2023-10-19T14:31:39;18.30;99.90
5899;DHT22;2975;50.956;6.962;2023-10-19T14:34:05;18.30;99.90
5899;DHT22;2975;50.956;6.962;2023-10-19T14:36:30;18.30;99.90
5899;DHT22;2975;50.956;6.962;2023-10-19T14:38:56;18.20;99.90
5899;DHT22;2975;50.956;6.962;2023-10-19T14:41:22;18.00;99.90
5899;DHT22;2975;50.956;6.962;2023-10-19T14:43:48;17.90;99.90
5899;DHT22;2975;50.956;6.962;2023-10-19T14:46:14;17.80;99.90
5899;DHT22;2975;50.956;6.962;2023-10-19T14:48:41;17.70;99.90
5899;DHT22;2975;50.956;6.962;2023-10-19T14:51:07;17.60;99.90
5899;DHT22;2975;50.956;6.962;2023-10-19T14:53:33;17.60;99.90
5899;DHT22;2975;50.956;6.962;2023-10-19T14:55:59;17.70;99.90
5899;DHT22;2975;50.956;6.962;2023-10-19T14:58:25;17.80;99.90
5899;DHT22;2975;50.956;6.962;2023-10-19T15:00:51;18.00;99.90
5899;DHT22;2975;50.956;6.962;2023-10-19T15:03:23;18.00;99.90
5899;DHT22;2975;50.956;6.962;2023-10-19T15:05:52;18.10;99.90
5899;DHT22;2975;50.956;6.962;2023-10-19T15:08:18;18.10;99.90
5899;DHT22;2975;50.956;6.962;2023-10-19T15:10:45;18.20;99.90
5899;DHT22;2975;50.956;6.962;2023-10-19T15:13:10;18.10;99.90
5899;DHT22;2975;50.956;6.962;2023-10-19T15:15:36;18.00;99.90
5899;DHT22;2975;50.956;6.962;2023-10-19T15:18:02;18.00;99.90
5899;DHT22;2975;50.956;6.962;2023-10-19T15:20:29;18.00;99.90
5899;DHT22;2975;50.956;6.962;2023-10-19T15:22:58;18.00;99.90
5899;DHT22;2975;50.956;6.962;2023-10-19T15:25:24;18.10;99.90
5899;DHT22;2975;50.956;6.962;2023-10-19T15:27:51;18.30;99.90
5899;DHT22;2975;50.956;6.962;2023-10-19T15:30:17;18.30;99.90
5899;DHT22;2975;50.956;6.962;2023-10-19T15:32:49;18.30;99.90
5899;DHT22;2975;50.956;6.962;2023-10-19T15:35:16;18.20;99.90
5899;DHT22;2975;50.956;6.962;2023-10-19T15:37:46;18.20;99.90
5899;DHT22;2975;50.956;6.962;2023-10-19T15:40:16;18.10;99.90
5899;DHT22;2975;50.956;6.962;2023-10-19T15:42:43;18.00;99.90
5899;DHT22;2975;50.956;6.962;2023-10-19T15:45:10;18.00;99.90
5899;DHT22;2975;50.956;6.962;2023-10-19T15:47:37;18.00;99.90
5899;DHT22;2975;50.956;6.962;2023-10-19T15:50:03;17.90;99.90
5899;DHT22;2975;50.956;6.962;2023-10-19T15:52:29;18.00;99.90
5899;DHT22;2975;50.956;6.962;2023-10-19T15:54:57;18.00;99.90
5899;DHT22;2975;50.956;6.962;2023-10-19T15:57:23;17.90;99.90
5899;DHT22;2975;50.956;6.962;2023-10-19T15:59:50;17.90;99.90
5899;DHT22;2975;50.956;6.962;2023-10-19T16:02:15;17.90;99.90
5899;DHT22;2975;50.956;6.962;2023-10-19T16:04:42;17.80;99.90
5899;DHT22;2975;50.956;6.962;2023-10-19T16:07:12;17.50;99.90
5899;DHT22;2975;50.956;6.962;2023-10-19T16:09:38;17.30;99.90
5899;DHT22;2975;50.956;6.962;2023-10-19T16:12:05;17.20;99.90
5899;DHT22;2975;50.956;6.962;2023-10-19T16:14:36;17.00;99.90
5899;DHT22;2975;50.956;6.962;2023-10-19T16:17:03;16.90;99.90
5899;DHT22;2975;50.956;6.962;2023-10-19T16:19:31;16.80;99.90